Time;durP1;ratioP1;P1;durP2;ratioP2;P2;SDS_P1;SDS_P2;PMS_P1;PMS_P2;Temp;Humidity;BMP_temperature;BMP_pressure;BME280_temperature;BME280_humidity;BME280_pressure;Samples;Min_cycle;Max_cycle;Signal;HPM_P1;HPM_P2
2024/01/13 00:01:07;;;;;;;39.75;21.20;;;-0.30;1.00;;;;;;5047974;28;20251;-77
2024/01/13 00:03:36;;;;;;;36.63;20.70;;;-0.30;1.00;;;;;;5054255;28;20210;-80
2024/01/13 00:06:05;;;;;;;40.58;21.02;;;-0.40;1.00;;;;;;5043759;28;20739;-78
2024/01/13 00:08:33;;;;;;;50.58;22.13;;;-0.50;1.00;;;;;;5040648;28;20703;-78
2024/01/13 00:11:05;;;;;;;42.03;22.00;;;-0.30;1.00;;;;;;5045131;28;20225;-79
2024/01/13 00:13:35;;;;;;;39.50;21.52;;;-0.30;1.00;;;;;;5037991;28;20218;-79
2024/01/13 00:16:03;;;;;;;38.80;22.52;;;-0.30;1.00;;;;;;5032920;28;20197;-79
2024/01/13 00:18:32;;;;;;;41.28;21.45;;;-0.40;1.00;;;;;;5043857;28;20212;-79
2024/01/13 00:21:08;;;;;;;44.25;22.02;;;-0.40;1.00;;;;;;5047209;28;20193;-78
2024/01/13 00:23:37;;;;;;;46.22;24.58;;;-0.40;1.00;;;;;;5049447;28;20225;-79
2024/01/13 00:26:06;;;;;;;42.95;23.10;;;-0.50;1.00;;;;;;5046348;28;20304;-79
2024/01/13 00:28:36;;;;;;;40.17;21.13;;;-0.50;1.00;;;;;;5040691;28;20327;-78
2024/01/13 00:31:05;;;;;;;44.35;24.77;;;-0.50;1.00;;;;;;5038904;28;20671;-77
2024/01/13 00:33:35;;;;;;;46.83;22.77;;;-0.60;1.00;;;;;;5052038;28;20225;-79
2024/01/13 00:36:05;;;;;;;37.78;19.45;;;-0.40;1.00;;;;;;5046722;28;20225;-80
2024/01/13 00:38:34;;;;;;;41.60;24.08;;;-0.40;1.00;;;;;;5049630;28;20201;-80
2024/01/13 00:41:05;;;;;;;42.13;22.90;;;-0.30;1.00;;;;;;5046903;28;20205;-79
2024/01/13 00:43:37;;;;;;;40.28;22.42;;;-0.20;1.00;;;;;;5040052;28;20236;-79
2024/01/13 00:46:06;;;;;;;46.33;23.60;;;-0.20;1.00;;;;;;5036262;28;20859;-80
2024/01/13 00:48:35;;;;;;;41.28;21.92;;;-0.40;1.00;;;;;;5037442;28;21562;-79
2024/01/13 00:51:10;;;;;;;37.85;21.30;;;-0.40;1.00;;;;;;5031544;28;21469;-79
2024/01/13 00:53:40;;;;;;;35.85;20.42;;;-0.40;1.00;;;;;;5044693;28;20326;-80
2024/01/13 00:56:08;;;;;;;36.72;20.75;;;-0.40;1.00;;;;;;5037737;28;20206;-77
2024/01/13 00:58:39;;;;;;;43.67;21.75;;;-0.40;1.00;;;;;;5034112;28;20206;-78
2024/01/13 01:01:13;;;;;;;43.50;23.15;;;-0.40;1.00;;;;;;5036783;28;20233;-81
2024/01/13 01:03:44;;;;;;;38.00;21.25;;;-0.40;1.00;;;;;;5046424;28;20267;-78
2024/01/13 01:06:14;;;;;;;44.75;21.17;;;-0.40;1.00;;;;;;5042440;28;21501;-81
2024/01/13 01:08:42;;;;;;;44.13;21.40;;;-0.30;1.00;;;;;;5040702;28;20283;-78
2024/01/13 01:11:12;;;;;;;36.95;21.23;;;-0.30;1.00;;;;;;5037017;28;20384;-76
2024/01/13 01:13:42;;;;;;;43.47;20.88;;;-0.40;1.00;;;;;;5039678;28;20737;-77
2024/01/13 01:16:11;;;;;;;40.45;21.52;;;-0.50;1.00;;;;;;5047226;28;20296;-79
2024/01/13 01:18:39;;;;;;;42.50;21.55;;;-0.50;1.00;;;;;;5046646;28;20201;-78
2024/01/13 01:21:15;;;;;;;41.38;21.60;;;-0.50;1.00;;;;;;5049572;28;20216;-79
2024/01/13 01:23:46;;;;;;;40.40;20.75;;;-0.50;1.00;;;;;;5049105;28;20312;-78
2024/01/13 01:26:15;;;;;;;39.20;22.73;;;-0.60;1.00;;;;;;5051738;28;20989;-78
2024/01/13 01:28:45;;;;;;;41.63;21.40;;;-0.60;1.00;;;;;;5052314;28;20197;-77
2024/01/13 01:31:13;;;;;;;35.72;20.77;;;-0.60;1.00;;;;;;5042539;28;20211;-79
2024/01/13 01:33:42;;;;;;;46.38;22.15;;;-0.40;1.00;;;;;;5044383;28;20312;-78
2024/01/13 01:36:10;;;;;;;39.00;21.40;;;-0.30;1.00;;;;;;5051679;28;20230;-79
2024/01/13 01:38:39;;;;;;;44.67;22.10;;;-0.40;1.00;;;;;;5048501;28;20203;-78
2024/01/13 01:41:13;;;;;;;41.58;21.83;;;-0.50;1.00;;;;;;5042006;28;20216;-78
2024/01/13 01:43:45;;;;;;;41.10;22.45;;;-0.50;1.00;;;;;;5038611;28;20784;-78
2024/01/13 01:46:14;;;;;;;43.53;24.25;;;-0.50;1.00;;;;;;5041406;28;20214;-77
2024/01/13 01:48:44;;;;;;;38.22;20.85;;;-0.40;1.00;;;;;;5041866;28;20237;-77
2024/01/13 01:51:15;;;;;;;42.53;22.27;;;-0.40;1.00;;;;;;5045760;28;20205;-79
2024/01/13 01:53:45;;;;;;;37.88;19.85;;;-0.40;1.00;;;;;;5049191;28;20291;-78
2024/01/13 01:56:18;;;;;;;39.88;21.15;;;-0.30;1.00;;;;;;5048809;28;20226;-78
2024/01/13 01:58:49;;;;;;;43.97;20.88;;;-0.30;1.00;;;;;;5042663;28;20194;-80
2024/01/13 02:01:18;;;;;;;45.95;25.50;;;-0.40;1.00;;;;;;5037498;28;20281;-79
2024/01/13 02:03:47;;;;;;;40.53;22.45;;;-0.50;1.00;;;;;;5046203;28;20731;-79
2024/01/13 02:06:16;;;;;;;42.20;23.65;;;-0.50;1.00;;;;;;5041360;28;20264;-79
2024/01/13 02:08:46;;;;;;;40.60;22.80;;;-0.60;1.00;;;;;;5045504;28;20202;-78
2024/01/13 02:11:15;;;;;;;39.95;21.33;;;-0.60;1.00;;;;;;5041289;28;20198;-79
2024/01/13 02:13:46;;;;;;;41.63;21.95;;;-0.60;1.00;;;;;;5042474;28;20225;-78
2024/01/13 02:16:17;;;;;;;40.15;22.50;;;-0.50;1.00;;;;;;5040115;28;20227;-80
2024/01/13 02:18:45;;;;;;;48.55;23.55;;;-0.60;1.00;;;;;;5038731;28;20205;-78
2024/01/13 02:21:14;;;;;;;43.03;22.02;;;-0.70;1.00;;;;;;5040393;28;20222;-77
2024/01/13 02:23:46;;;;;;;47.97;24.60;;;-0.50;1.00;;;;;;5053683;28;20221;-79
2024/01/13 02:26:15;;;;;;;41.80;23.42;;;-0.40;1.00;;;;;;5050778;28;20761;-78
2024/01/13 02:28:43;;;;;;;49.70;23.48;;;-0.50;1.00;;;;;;5048817;28;20270;-82
2024/01/13 02:31:16;;;;;;;46.40;24.42;;;-0.50;1.00;;;;;;5041873;28;20205;-77
2024/01/13 02:33:50;;;;;;;39.78;22.80;;;-0.50;1.00;;;;;;5053768;28;20224;-78
2024/01/13 02:36:21;;;;;;;44.35;25.42;;;-0.50;1.00;;;;;;5059268;28;20209;-78
2024/01/13 02:38:51;;;;;;;44.90;22.23;;;-0.50;1.00;;;;;;5051400;28;20302;-79
2024/01/13 02:41:19;;;;;;;42.25;22.50;;;-0.50;1.00;;;;;;5043230;28;20223;-79
2024/01/13 02:43:48;;;;;;;44.10;20.48;;;-0.50;1.00;;;;;;5056470;28;20221;-80
2024/01/13 02:46:16;;;;;;;50.45;23.17;;;-0.50;1.00;;;;;;5050209;28;20281;-79
2024/01/13 02:48:47;;;;;;;45.22;23.60;;;-0.50;1.00;;;;;;5043184;28;20316;-79
2024/01/13 02:51:17;;;;;;;50.92;25.80;;;-0.50;1.00;;;;;;5046229;28;20194;-81
2024/01/13 02:53:47;;;;;;;51.33;25.08;;;-0.40;1.00;;;;;;5046132;28;20239;-78
2024/01/13 02:56:18;;;;;;;49.63;25.25;;;-0.40;1.00;;;;;;5048183;28;20220;-80
2024/01/13 02:58:46;;;;;;;49.47;24.75;;;-0.50;1.00;;;;;;5038399;28;20222;-78
2024/01/13 03:01:17;;;;;;;45.67;24.38;;;-0.50;1.00;;;;;;5047250;28;20303;-78
2024/01/13 03:03:49;;;;;;;48.72;24.25;;;-0.60;1.00;;;;;;5051663;28;20221;-81
2024/01/13 03:06:22;;;;;;;44.72;22.98;;;-0.50;1.00;;;;;;5047088;28;20265;-79
2024/01/13 03:08:53;;;;;;;49.33;22.85;;;-0.50;1.00;;;;;;5042006;28;20291;-80
2024/01/13 03:11:23;;;;;;;49.70;24.95;;;-0.60;1.00;;;;;;5042568;28;20211;-80
2024/01/13 03:13:54;;;;;;;41.47;20.58;;;-0.60;1.00;;;;;;5053481;28;20221;-80
2024/01/13 03:16:23;;;;;;;39.60;22.98;;;-0.60;1.00;;;;;;5040348;28;20597;-79
2024/01/13 03:18:51;;;;;;;41.97;23.52;;;-0.60;1.00;;;;;;5038924;28;20333;-79
2024/01/13 03:21:20;;;;;;;41.03;22.50;;;-0.70;1.00;;;;;;5045331;28;20202;-78
2024/01/13 03:23:48;;;;;;;48.03;22.40;;;-0.80;1.00;;;;;;5040919;28;20252;-78
2024/01/13 03:26:16;;;;;;;41.63;22.20;;;-1.00;1.00;;;;;;5045601;28;20213;-81
2024/01/13 03:28:46;;;;;;;45.90;24.50;;;-0.90;1.00;;;;;;5041229;28;20215;-80
2024/01/13 03:31:15;;;;;;;48.55;24.85;;;-0.80;1.00;;;;;;5041742;28;20297;-79
2024/01/13 03:33:46;;;;;;;42.53;24.70;;;-0.70;1.00;;;;;;5045501;28;20326;-79
2024/01/13 03:36:17;;;;;;;47.50;26.90;;;-0.80;1.00;;;;;;5037598;28;20237;-80
2024/01/13 03:38:46;;;;;;;56.83;25.23;;;-0.80;1.00;;;;;;5045232;28;20329;-81
2024/01/13 03:41:16;;;;;;;50.92;24.42;;;-0.70;1.00;;;;;;5039237;28;20186;-80
2024/01/13 03:43:46;;;;;;;40.17;22.92;;;-0.60;1.00;;;;;;5050766;28;20259;-80
2024/01/13 03:46:15;;;;;;;47.95;23.98;;;-0.60;1.00;;;;;;5040416;28;20212;-79
2024/01/13 03:48:44;;;;;;;45.30;24.48;;;-0.60;1.00;;;;;;5037921;28;20747;-82
2024/01/13 03:51:13;;;;;;;47.20;23.15;;;-0.70;1.00;;;;;;5040029;28;21320;-81
2024/01/13 03:53:42;;;;;;;47.35;25.25;;;-0.70;1.00;;;;;;5041007;28;20221;-78
2024/01/13 03:56:11;;;;;;;38.58;24.33;;;-0.80;1.00;;;;;;5043231;28;20209;-79
2024/01/13 03:58:40;;;;;;;49.75;24.27;;;-0.70;1.00;;;;;;5048537;28;20689;-77
2024/01/13 04:01:09;;;;;;;47.95;23.23;;;-0.60;1.00;;;;;;5042748;28;20302;-80
2024/01/13 04:03:39;;;;;;;45.08;22.30;;;-0.70;1.00;;;;;;5045367;28;20721;-77
2024/01/13 04:06:08;;;;;;;44.65;23.67;;;-0.70;1.00;;;;;;5047663;28;20729;-82
2024/01/13 04:08:37;;;;;;;38.35;23.02;;;-0.70;1.00;;;;;;5036293;28;20276;-82
2024/01/13 04:11:08;;;;;;;49.25;26.20;;;-0.70;1.00;;;;;;5045165;28;20200;-80
2024/01/13 04:13:38;;;;;;;43.55;23.35;;;-0.70;1.00;;;;;;5046354;28;20440;-78
2024/01/13 04:16:07;;;;;;;48.65;24.50;;;-0.70;1.00;;;;;;5043016;28;20307;-80
2024/01/13 04:18:37;;;;;;;49.75;23.27;;;-0.70;1.00;;;;;;5037845;28;20652;-78
2024/01/13 04:21:06;;;;;;;40.28;21.92;;;-0.70;1.00;;;;;;5041950;28;20197;-80
2024/01/13 04:23:49;;;;;;;40.30;22.38;;;-0.60;1.00;;;;;;5050734;28;20220;-80
2024/01/13 04:26:18;;;;;;;53.90;25.67;;;-0.60;1.00;;;;;;5040873;28;20297;-78
2024/01/13 04:28:46;;;;;;;49.05;24.15;;;-0.60;1.00;;;;;;5040482;28;20208;-75
2024/01/13 04:31:14;;;;;;;63.65;24.98;;;-0.60;1.00;;;;;;5033785;28;20202;-77
2024/01/13 04:33:44;;;;;;;46.53;22.58;;;-0.50;1.00;;;;;;5043629;28;20287;-78
2024/01/13 04:36:12;;;;;;;49.45;23.52;;;-0.60;1.00;;;;;;5050277;28;20213;-78
2024/01/13 04:38:40;;;;;;;50.17;24.75;;;-0.60;1.00;;;;;;5049609;28;20225;-77
2024/01/13 04:41:09;;;;;;;45.60;22.83;;;-0.60;1.00;;;;;;5046430;28;20197;-79
2024/01/13 04:43:38;;;;;;;50.47;23.73;;;-0.60;1.00;;;;;;5045934;28;20233;-78
2024/01/13 04:46:07;;;;;;;36.78;22.58;;;-0.60;1.00;;;;;;5039348;28;20685;-80
2024/01/13 04:48:36;;;;;;;45.00;24.25;;;-0.50;1.00;;;;;;5043940;28;20259;-79
2024/01/13 04:51:06;;;;;;;47.92;24.08;;;-0.60;1.00;;;;;;5037563;28;20197;-77
2024/01/13 04:53:34;;;;;;;45.75;23.02;;;-0.70;1.00;;;;;;5039507;28;20218;-77
2024/01/13 04:56:03;;;;;;;53.05;22.38;;;-0.80;1.00;;;;;;5037990;28;20645;-79
2024/01/13 04:58:31;;;;;;;47.70;23.85;;;-0.80;1.00;;;;;;5039526;28;20201;-78
2024/01/13 05:00:59;;;;;;;46.45;24.25;;;-0.80;1.00;;;;;;5036994;28;20193;-78
2024/01/13 05:03:27;;;;;;;48.92;24.13;;;-0.70;1.00;;;;;;5046733;28;20336;-79
2024/01/13 05:05:56;;;;;;;39.08;22.60;;;-0.70;1.00;;;;;;5043968;28;20201;-81
2024/01/13 05:08:26;;;;;;;39.40;21.90;;;-0.80;1.00;;;;;;5037197;28;20198;-80
2024/01/13 05:10:54;;;;;;;43.38;22.98;;;-0.80;1.00;;;;;;5050684;28;20292;-82
2024/01/13 05:13:22;;;;;;;45.13;23.00;;;-0.80;1.00;;;;;;5047858;28;20197;-79
2024/01/13 05:15:50;;;;;;;53.63;22.52;;;-0.80;1.00;;;;;;5042982;28;20218;-80
2024/01/13 05:18:18;;;;;;;45.72;22.10;;;-0.90;1.00;;;;;;5045639;28;20198;-80
2024/01/13 05:20:47;;;;;;;48.55;23.60;;;-0.80;5.80;;;;;;5044989;28;20562;-79
2024/01/13 05:23:16;;;;;;;47.10;23.98;;;-0.70;1.00;;;;;;5051750;28;20209;-79
2024/01/13 05:25:45;;;;;;;47.72;24.38;;;-0.70;1.00;;;;;;5037810;28;20198;-77
2024/01/13 05:28:13;;;;;;;44.05;21.13;;;-0.70;1.00;;;;;;5037376;28;20208;-79
2024/01/13 05:30:42;;;;;;;44.60;22.48;;;-0.80;1.00;;;;;;5041818;28;20205;-79
2024/01/13 05:33:10;;;;;;;53.30;24.52;;;-0.80;1.00;;;;;;5035468;28;20228;-81
2024/01/13 05:35:38;;;;;;;45.15;22.50;;;-0.70;1.00;;;;;;5048634;28;20291;-80
2024/01/13 05:38:07;;;;;;;42.42;22.38;;;-0.70;1.00;;;;;;5038783;28;20580;-78
2024/01/13 05:40:35;;;;;;;42.40;22.10;;;-0.70;1.00;;;;;;5038912;28;20210;-79
2024/01/13 05:43:04;;;;;;;48.95;25.27;;;-0.80;1.00;;;;;;5034193;28;20285;-78
2024/01/13 05:45:33;;;;;;;41.83;23.38;;;-0.90;1.00;;;;;;5044929;28;20205;-79
2024/01/13 05:48:01;;;;;;;48.97;22.50;;;-0.80;1.00;;;;;;5040409;28;20193;-79
2024/01/13 05:50:30;;;;;;;55.13;25.77;;;-0.90;1.00;;;;;;5036432;28;20194;-77
2024/01/13 05:52:58;;;;;;;42.13;22.17;;;-0.80;1.00;;;;;;5030032;28;20201;-78
2024/01/13 05:55:26;;;;;;;41.67;22.30;;;-0.90;1.00;;;;;;5034789;28;20232;-79
2024/01/13 05:57:57;;;;;;;44.92;22.90;;;-0.90;1.00;;;;;;5036574;28;20236;-80
2024/01/13 06:00:27;;;;;;;47.80;23.95;;;-0.80;1.00;;;;;;5047229;28;20296;-81
2024/01/13 06:02:56;;;;;;;44.97;22.00;;;-0.80;1.00;;;;;;5038169;28;20213;-80
2024/01/13 06:05:25;;;;;;;46.75;20.50;;;-0.80;1.00;;;;;;5039050;28;20268;-79
2024/01/13 06:07:53;;;;;;;47.67;22.55;;;-0.70;1.00;;;;;;5041037;28;20252;-81
2024/01/13 06:10:21;;;;;;;35.40;20.80;;;-0.70;1.00;;;;;;5041363;28;20309;-81
2024/01/13 06:12:50;;;;;;;35.63;19.95;;;-0.70;1.00;;;;;;5051434;28;20989;-80
2024/01/13 06:15:18;;;;;;;38.40;19.70;;;-0.70;1.00;;;;;;5044961;28;20226;-81
2024/01/13 06:17:48;;;;;;;41.15;19.48;;;-0.70;1.00;;;;;;5051323;28;20246;-79
2024/01/13 06:20:17;;;;;;;31.50;19.67;;;-0.70;1.00;;;;;;5045667;28;20289;-79
2024/01/13 06:22:45;;;;;;;37.60;20.38;;;-0.70;1.00;;;;;;5044002;28;20212;-78
2024/01/13 06:25:14;;;;;;;37.78;18.50;;;-0.80;1.00;;;;;;5058974;28;20299;-79
2024/01/13 06:27:42;;;;;;;28.70;16.40;;;-0.80;1.00;;;;;;5044405;28;20202;-79
2024/01/13 06:30:12;;;;;;;32.63;16.75;;;-0.90;1.00;;;;;;5041768;28;20217;-80
2024/01/13 06:32:41;;;;;;;29.58;16.77;;;-0.80;1.00;;;;;;5048643;28;20198;-78
2024/01/13 06:35:11;;;;;;;33.60;17.38;;;-0.80;1.00;;;;;;5058793;28;20213;-79
2024/01/13 06:37:39;;;;;;;30.80;17.17;;;-0.80;1.00;;;;;;5055105;28;20218;-79
2024/01/13 06:40:09;;;;;;;34.65;18.65;;;-0.80;1.00;;;;;;5058116;28;20215;-78
2024/01/13 06:42:37;;;;;;;33.85;18.10;;;-0.80;1.00;;;;;;5058168;28;20829;-81
2024/01/13 06:45:07;;;;;;;41.10;20.30;;;-0.70;1.00;;;;;;5050175;28;20229;-79
2024/01/13 06:47:35;;;;;;;43.67;21.25;;;-0.80;1.00;;;;;;5049938;28;20213;-81
2024/01/13 06:50:04;;;;;;;36.42;18.85;;;-0.80;1.00;;;;;;5049959;28;20339;-78
2024/01/13 06:52:33;;;;;;;41.20;21.73;;;-0.80;1.00;;;;;;5039422;28;20218;-79
2024/01/13 06:55:02;;;;;;;39.92;20.63;;;-0.90;1.00;;;;;;5051338;28;20286;-80
2024/01/13 06:57:30;;;;;;;42.30;20.95;;;-1.00;1.00;;;;;;5054701;28;20300;-78
2024/01/13 06:59:58;;;;;;;35.58;18.67;;;-1.00;1.00;;;;;;5056011;28;20665;-80
2024/01/13 07:02:27;;;;;;;34.78;19.05;;;-0.80;1.00;;;;;;5058527;28;20225;-82
2024/01/13 07:05:01;;;;;;;31.30;16.95;;;-0.70;1.00;;;;;;5059273;28;20218;-80
2024/01/13 07:07:31;;;;;;;32.47;18.63;;;-0.70;99.90;;;;;;5058349;28;20273;-78
2024/01/13 07:10:00;;;;;;;34.92;18.70;;;-0.80;99.90;;;;;;5048764;28;20198;-80
2024/01/13 07:12:29;;;;;;;40.75;17.58;;;-1.00;1.00;;;;;;5057002;28;20189;-78
2024/01/13 07:14:57;;;;;;;39.63;20.73;;;-0.90;1.00;;;;;;5052280;28;20217;-79
2024/01/13 07:17:29;;;;;;;34.53;19.77;;;-0.80;1.00;;;;;;5040949;28;20303;-78
2024/01/13 07:19:58;;;;;;;37.67;19.52;;;-0.80;1.00;;;;;;5047489;28;20220;-79
2024/01/13 07:22:27;;;;;;;37.87;21.93;;;-0.80;99.90;;;;;;5042040;28;20489;-79
2024/01/13 07:24:55;;;;;;;49.92;22.90;;;-0.90;1.00;;;;;;5047570;28;21511;-78
2024/01/13 07:27:25;;;;;;;36.90;20.45;;;-0.80;99.90;;;;;;5039091;28;20202;-80
2024/01/13 07:29:54;;;;;;;39.88;22.20;;;-0.90;1.00;;;;;;5040263;28;20202;-79
2024/01/13 07:32:28;;;;;;;39.22;19.40;;;-0.80;1.00;;;;;;5048666;28;20193;-78
2024/01/13 07:34:57;;;;;;;40.72;20.95;;;-0.70;1.00;;;;;;5046091;28;20237;-77
2024/01/13 07:37:25;;;;;;;36.03;20.25;;;-0.80;99.90;;;;;;5044056;28;20695;-79
2024/01/13 07:39:54;;;;;;;32.03;16.70;;;-0.80;99.90;;;;;;5040496;28;20212;-80
2024/01/13 07:42:22;;;;;;;43.20;21.55;;;-0.90;99.90;;;;;;5039643;28;20257;-78
2024/01/13 07:44:51;;;;;;;31.42;18.27;;;-0.90;99.90;;;;;;5043467;28;20800;-79
2024/01/13 07:47:20;;;;;;;32.08;17.92;;;-1.00;99.90;;;;;;5048755;28;20470;-77
2024/01/13 07:49:48;;;;;;;38.15;18.60;;;-0.90;1.00;;;;;;5046373;28;20292;-76
2024/01/13 07:52:16;;;;;;;40.30;17.35;;;-0.60;1.00;;;;;;5043160;28;20208;-77
2024/01/13 07:54:45;;;;;;;34.40;19.48;;;-0.70;99.90;;;;;;5044863;28;20800;-78
2024/01/13 07:57:14;;;;;;;33.35;18.00;;;-0.90;99.90;;;;;;5044162;28;20818;-77
2024/01/13 07:59:43;;;;;;;32.88;17.85;;;-0.90;99.90;;;;;;5045865;28;20209;-78
2024/01/13 08:02:14;;;;;;;28.27;17.88;;;-1.00;1.00;;;;;;5042124;28;20228;-78
2024/01/13 08:04:43;;;;;;;29.92;16.33;;;-1.00;1.00;;;;;;5052392;28;20224;-79
2024/01/13 08:07:12;;;;;;;32.63;16.45;;;-0.80;1.00;;;;;;5045022;28;20197;-76
2024/01/13 08:09:41;;;;;;;36.78;18.20;;;-1.00;1.00;;;;;;5049347;28;20288;-79
2024/01/13 08:12:10;;;;;;;30.40;16.08;;;-0.80;1.00;;;;;;5044088;28;20305;-78
2024/01/13 08:14:38;;;;;;;30.50;17.65;;;-0.80;1.00;;;;;;5050123;28;20222;-78
2024/01/13 08:17:07;;;;;;;30.15;16.42;;;-0.90;1.00;;;;;;5043797;28;20710;-78
2024/01/13 08:19:38;;;;;;;27.67;14.00;;;-0.80;1.00;;;;;;5048693;28;20201;-78
2024/01/13 08:22:07;;;;;;;23.70;14.30;;;-0.80;1.00;;;;;;5038754;28;20842;-77
2024/01/13 08:24:36;;;;;;;29.38;14.52;;;-1.00;1.00;;;;;;5043731;28;20220;-76
2024/01/13 08:27:05;;;;;;;25.57;16.17;;;-0.90;1.00;;;;;;5046858;28;20591;-78
2024/01/13 08:29:33;;;;;;;24.23;15.15;;;-0.90;1.00;;;;;;5045087;28;20464;-77
2024/01/13 08:32:01;;;;;;;24.88;14.13;;;-0.90;1.00;;;;;;5040237;28;20987;-78
2024/01/13 08:34:30;;;;;;;25.40;13.15;;;-1.00;1.00;;;;;;5047899;28;20221;-78
2024/01/13 08:36:59;;;;;;;24.05;13.52;;;-1.00;1.00;;;;;;5038769;28;20198;-78
2024/01/13 08:39:28;;;;;;;26.55;15.02;;;-0.90;1.00;;;;;;5050809;28;20218;-76
2024/01/13 08:41:56;;;;;;;21.65;13.32;;;-0.80;1.00;;;;;;5054510;28;20697;-78
2024/01/13 08:44:24;;;;;;;17.27;9.50;;;-0.80;1.00;;;;;;5045782;28;20282;-79
2024/01/13 08:46:52;;;;;;;17.60;9.25;;;-0.80;1.00;;;;;;5046819;28;20215;-79
2024/01/13 08:49:21;;;;;;;12.73;9.10;;;-0.70;1.00;;;;;;5052731;28;20560;-77
2024/01/13 08:51:49;;;;;;;14.95;10.02;;;-0.70;1.00;;;;;;5053985;28;20201;-77
2024/01/13 08:54:19;;;;;;;18.55;8.90;;;-0.60;1.00;;;;;;5048256;28;20245;-76
2024/01/13 08:56:48;;;;;;;13.95;8.15;;;-0.60;1.00;;;;;;5053829;28;20628;-79
2024/01/13 08:59:16;;;;;;;13.38;7.45;;;-0.60;1.00;;;;;;5051831;28;20253;-78
2024/01/13 09:01:45;;;;;;;11.98;7.30;;;-0.50;1.00;;;;;;5049365;28;20206;-79
2024/01/13 09:04:13;;;;;;;16.08;8.40;;;-0.50;1.00;;;;;;5049788;28;20231;-77
2024/01/13 09:06:42;;;;;;;18.00;10.45;;;-0.50;1.00;;;;;;5050983;28;20475;-76
2024/01/13 09:09:10;;;;;;;17.13;8.50;;;-0.50;1.00;;;;;;5049072;28;20196;-76
2024/01/13 09:11:42;;;;;;;20.35;9.95;;;-0.50;1.00;;;;;;5047767;28;20224;-77
2024/01/13 09:14:13;;;;;;;14.00;9.57;;;-0.50;1.00;;;;;;5049134;28;20301;-77
2024/01/13 09:16:43;;;;;;;13.52;8.70;;;-0.50;1.00;;;;;;5044120;28;20197;-80
2024/01/13 09:19:12;;;;;;;14.00;8.15;;;-0.50;1.00;;;;;;5043180;28;20214;-76
2024/01/13 09:21:42;;;;;;;14.40;7.78;;;-0.30;1.00;;;;;;5050822;28;20202;-78
2024/01/13 09:24:14;;;;;;;8.27;6.38;;;-0.40;1.00;;;;;;5050823;28;20217;-81
2024/01/13 09:26:45;;;;;;;11.27;6.80;;;-0.30;1.00;;;;;;5049864;28;20958;-78
2024/01/13 09:29:18;;;;;;;13.52;8.77;;;-0.30;1.00;;;;;;5048722;28;20455;-79
2024/01/13 09:31:49;;;;;;;11.60;7.15;;;-0.30;1.00;;;;;;5049160;28;20197;-78
2024/01/13 09:34:18;;;;;;;10.05;6.90;;;-0.20;1.00;;;;;;5050797;28;20225;-78
2024/01/13 09:36:47;;;;;;;11.98;7.82;;;-0.20;1.00;;;;;;5045567;28;20255;-76
2024/01/13 09:39:20;;;;;;;15.15;8.82;;;-0.20;1.00;;;;;;5039926;28;20611;-78
2024/01/13 09:41:55;;;;;;;9.30;6.78;;;-0.20;1.00;;;;;;5042286;28;20197;-77
2024/01/13 09:44:25;;;;;;;11.20;7.68;;;-0.30;1.00;;;;;;5057854;28;20216;-78
2024/01/13 09:46:55;;;;;;;10.15;7.70;;;-0.20;1.00;;;;;;5051906;28;20205;-77
2024/01/13 09:49:26;;;;;;;14.52;7.70;;;-0.20;1.00;;;;;;5053420;28;20204;-77
2024/01/13 09:51:56;;;;;;;12.23;7.32;;;-0.20;1.00;;;;;;5055879;28;20610;-79
2024/01/13 09:54:26;;;;;;;10.80;8.32;;;-0.20;1.00;;;;;;5054889;28;20217;-78
2024/01/13 09:56:58;;;;;;;16.43;10.93;;;-0.30;1.00;;;;;;5047376;28;20562;-77
2024/01/13 09:59:29;;;;;;;14.93;9.98;;;-0.40;1.00;;;;;;5053415;28;21008;-77
2024/01/13 10:02:02;;;;;;;19.45;8.90;;;-0.20;1.00;;;;;;5052676;28;20208;-77
2024/01/13 10:04:36;;;;;;;15.23;9.70;;;-0.10;1.00;;;;;;5056256;28;20209;-77
2024/01/13 10:07:08;;;;;;;13.52;9.73;;;-0.10;1.00;;;;;;5053447;28;20295;-78
2024/01/13 10:09:38;;;;;;;13.65;8.55;;;-0.10;1.00;;;;;;5051352;28;20229;-78
2024/01/13 10:12:09;;;;;;;14.20;8.30;;;-0.10;1.00;;;;;;5053110;28;20276;-77
2024/01/13 10:14:40;;;;;;;14.98;8.05;;;-0.10;1.00;;;;;;5053608;28;20255;-77
2024/01/13 10:17:11;;;;;;;13.13;9.02;;;-0.10;1.00;;;;;;5052809;28;20221;-77
2024/01/13 10:19:43;;;;;;;12.98;8.85;;;-0.10;1.00;;;;;;5055092;28;20594;-77
2024/01/13 10:22:15;;;;;;;18.02;10.30;;;-0.20;99.90;;;;;;5051132;28;20199;-78
2024/01/13 10:24:45;;;;;;;15.30;8.60;;;-0.10;1.00;;;;;;5052121;28;20324;-78
2024/01/13 10:27:15;;;;;;;16.13;9.48;;;-0.20;1.00;;;;;;5053165;28;20233;-78
2024/01/13 10:29:44;;;;;;;15.32;8.48;;;-0.20;99.90;;;;;;5054759;28;20286;-78
2024/01/13 10:32:13;;;;;;;13.23;7.85;;;-0.20;1.00;;;;;;5053277;28;20244;-80
2024/01/13 10:34:50;;;;;;;9.18;7.00;;;-0.10;1.00;;;;;;5057149;28;20233;-77
2024/01/13 10:37:19;;;;;;;10.57;8.13;;;-0.10;1.00;;;;;;5053428;28;20292;-78
2024/01/13 10:39:48;;;;;;;13.88;8.73;;;-0.10;1.00;;;;;;5051395;28;20228;-78
2024/01/13 10:42:21;;;;;;;12.88;8.68;;;-0.10;1.00;;;;;;5055392;28;20196;-79
2024/01/13 10:44:56;;;;;;;12.20;8.32;;;0.00;1.00;;;;;;5051547;28;20220;-78
2024/01/13 10:47:30;;;;;;;11.52;8.02;;;0.00;1.00;;;;;;5051982;28;20208;-77
2024/01/13 10:49:59;;;;;;;10.68;7.78;;;0.00;1.00;;;;;;5049523;28;20200;-78
2024/01/13 10:52:33;;;;;;;13.18;8.52;;;0.00;1.00;;;;;;5052986;28;20208;-76
2024/01/13 10:55:04;;;;;;;13.70;8.07;;;0.00;1.00;;;;;;5049818;28;20248;-77
2024/01/13 10:57:36;;;;;;;9.93;6.95;;;0.00;1.00;;;;;;5056318;28;20192;-77
2024/01/13 11:00:07;;;;;;;11.90;7.63;;;0.10;1.00;;;;;;5051019;28;20259;-78
2024/01/13 11:02:37;;;;;;;10.30;6.88;;;0.10;1.00;;;;;;5051687;28;20255;-79
2024/01/13 11:05:08;;;;;;;8.55;7.38;;;0.10;1.00;;;;;;5055788;28;20231;-78
2024/01/13 11:07:37;;;;;;;10.80;7.25;;;0.10;99.90;;;;;;5051200;28;20267;-77
2024/01/13 11:10:12;;;;;;;11.18;7.82;;;0.10;99.90;;;;;;5051882;28;20462;-77
2024/01/13 11:12:48;;;;;;;10.02;7.03;;;0.10;99.90;;;;;;5055823;28;20201;-76
2024/01/13 11:15:26;;;;;;;8.27;6.35;;;0.10;99.90;;;;;;5056982;28;20225;-76
2024/01/13 11:17:55;;;;;;;10.43;7.55;;;0.20;99.90;;;;;;5047623;28;20248;-77
2024/01/13 11:20:24;;;;;;;14.18;9.00;;;0.20;99.90;;;;;;5053158;28;20284;-78
2024/01/13 11:22:58;;;;;;;12.77;8.68;;;0.20;99.90;;;;;;5053723;28;20686;-76
2024/01/13 11:25:28;;;;;;;13.75;8.57;;;0.10;99.90;;;;;;5035746;28;20221;-77
2024/01/13 11:28:03;;;;;;;14.10;9.00;;;0.20;99.90;;;;;;5041115;28;20212;-77
2024/01/13 11:30:37;;;;;;;13.40;8.45;;;0.10;99.90;;;;;;5042855;28;20197;-77
2024/01/13 11:33:10;;;;;;;12.68;8.60;;;0.10;99.90;;;;;;5042058;28;20197;-78
2024/01/13 11:35:40;;;;;;;12.10;9.00;;;0.10;1.00;;;;;;5035279;28;20288;-78
2024/01/13 11:38:09;;;;;;;11.50;7.47;;;0.20;99.90;;;;;;5038005;28;20284;-78
2024/01/13 11:40:46;;;;;;;9.80;8.38;;;0.20;99.90;;;;;;5034077;28;20220;-78
2024/01/13 11:43:24;;;;;;;9.43;7.00;;;0.20;99.90;;;;;;5041437;28;20569;-77
2024/01/13 11:45:53;;;;;;;15.00;8.73;;;0.20;99.90;;;;;;5038965;28;20201;-77
2024/01/13 11:48:46;;;;;;;11.70;8.15;;;0.40;99.90;;;;;;5032507;28;20470;-78
2024/01/13 11:51:18;;;;;;;10.27;8.88;;;0.20;99.90;;;;;;5039264;28;20202;-78
2024/01/13 11:54:00;;;;;;;10.80;7.30;;;0.20;99.90;;;;;;5036985;28;20235;-78
2024/01/13 11:56:29;;;;;;;11.07;9.50;;;0.10;99.90;;;;;;5038824;28;20264;-77
2024/01/13 11:58:59;;;;;;;11.98;7.03;;;0.10;99.90;;;;;;5043309;28;20201;-77
2024/01/13 12:01:27;;;;;;;12.93;7.75;;;0.20;99.90;;;;;;5037055;28;20292;-78
2024/01/13 12:04:10;;;;;;;15.95;8.10;;;0.10;99.90;;;;;;5050253;28;20274;-78
2024/01/13 12:06:38;;;;;;;15.00;10.15;;;-0.10;99.90;;;;;;5045249;28;20193;-79
2024/01/13 12:09:07;;;;;;;17.30;8.80;;;0.00;1.00;;;;;;5034712;28;20206;-78
2024/01/13 12:11:35;;;;;;;14.63;8.32;;;0.00;1.00;;;;;;5039927;28;20207;-79
2024/01/13 12:14:08;;;;;;;11.63;8.30;;;0.10;99.90;;;;;;5035417;28;20225;-76
2024/01/13 12:16:37;;;;;;;10.52;7.53;;;0.10;99.90;;;;;;5034464;28;20210;-79
2024/01/13 12:19:05;;;;;;;10.70;7.85;;;0.00;99.90;;;;;;5036217;28;20202;-79
2024/01/13 12:21:37;;;;;;;11.43;8.10;;;0.10;99.90;;;;;;5038029;28;20201;-78
2024/01/13 12:24:09;;;;;;;11.75;8.63;;;0.10;99.90;;;;;;5042391;28;20248;-78
2024/01/13 12:26:38;;;;;;;14.95;8.80;;;0.20;99.90;;;;;;5050222;28;20674;-77
2024/01/13 12:29:09;;;;;;;15.00;9.32;;;0.20;99.90;;;;;;5050242;28;20229;-77
2024/01/13 12:31:38;;;;;;;21.15;10.80;;;0.20;99.90;;;;;;5042480;28;20350;-79
2024/01/13 12:34:14;;;;;;;18.73;10.35;;;0.20;99.90;;;;;;5048067;28;20598;-79
2024/01/13 12:36:43;;;;;;;15.70;10.20;;;0.20;99.90;;;;;;5051097;28;20254;-80
2024/01/13 12:39:12;;;;;;;18.83;11.85;;;0.10;99.90;;;;;;5047889;28;20200;-80
2024/01/13 12:41:41;;;;;;;17.02;11.68;;;0.10;99.90;;;;;;5045222;28;20193;-78
2024/01/13 12:44:25;;;;;;;23.02;13.95;;;0.10;99.90;;;;;;5049840;28;20220;-79
2024/01/13 12:46:57;;;;;;;21.15;11.30;;;0.10;99.90;;;;;;5049149;28;20280;-79
2024/01/13 12:49:26;;;;;;;18.80;10.57;;;0.10;99.90;;;;;;5046720;28;20192;-79
2024/01/13 12:51:56;;;;;;;18.23;11.75;;;0.00;99.90;;;;;;5051663;28;20824;-79
2024/01/13 12:54:24;;;;;;;19.75;13.98;;;0.00;99.90;;;;;;5048663;28;20486;-80